LIPKLQSA

Guest
Details From LIPK - FORLI
To LQSA - Sarajevo
Flight Number -
Tags generated
Created
Modified
Stats Distance 282 nm / 522 km
Max Altitude 35,000 ft / 10,668 m
Waypoints 6
Social Downloads 2
Likes 0
Share VATSIM

Download

Looking for another format? Having issues loading an existing format? Contact us
Advertisement - Login to hide

Notes

Basic altitude profile: - Ascent Rate: 1500ft/min - Ascent Speed: 200kts - Cruise Altitude: 11000ft - Cruise Speed: 250kts - Descent Rate: 1500ft/min - Descent Speed: 220kts Options: - Use NATs: yes - Use PACOTS: yes - Use low airways: yes - Use high airways: yes

Route

LIPK LISKO UM730 SPL LQSA

ID Type Via Altitude Latitude Longitude Leg Dist Tot Dist Heading (true) Name
O LIPK APT - 0 ft / 0 m 44.19474˚ 12.07009˚ - 0 nm - FORLI
LISKO FIX - 33,500 ft / 10,211 m 43.57139˚ 14.13222˚ 96 nm 96 nm 112° / 113° -
TORPO FIX UM730 (AWY-HI) 35,000 ft / 10,668 m 43.56417˚ 14.42472˚ 12 nm 109 nm 92° / 92° -
ELGUS FIX UM730 (AWY-HI) 31,800 ft / 9,693 m 43.54778˚ 14.96667˚ 23 nm 133 nm 92° / 93° -
SPL VOR UM730 (AWY-HI) 27,500 ft / 8,382 m 43.49658˚ 16.30472˚ 58 nm 191 nm 93° / 93° SPLIT VOR-DME
O LQSA APT - 0 ft / 0 m 43.82460˚ 18.33150˚ 90 nm 281 nm 77° / 78° Sarajevo

Altitude Profile

Advertisement - Login to hide

Weather


0- 5 10 15 20 25 30 35+ Temperature / ° C

Clouds and Precipitation
Forecast for 2017-12-12 12:00 UTC. Updated 2 hours ago

Ground ~20,000 ft ~40,000 ft Winds

LIPK

Details ICAO LIPK (FRL)
Name FORLI
Region Italy
Timezone Europe/Rome (UTC+1.0)
Stats Elevation 97 ft / 30 m (AMSL)
Location 44.194743° 12.070087°
Runways 1
Magnetic Variation 3.065° E

METAR

LIPK 121150Z 22010KT 9999 SCT025 BKN060 14/05 Q1010

Decode

TAF

Not found

Departure Runways

ID Width Length Bearing (true) Bearing (mag) Surface Threshold Offset Overrun Length
12 148 ft / 45 m 7,893 ft / 2,406 m 117.70° 114.63° Asphalt 0 ft / 0 m 0 ft / 0 m
30 148 ft / 45 m 7,893 ft / 2,406 m 297.72° 294.65° Asphalt 0 ft / 0 m 0 ft / 0 m

LQSA

Details ICAO LQSA (SJJ)
Name Sarajevo
Region Bosnia and Herzegovinia
Timezone Europe/Sarajevo (UTC+1.0)
Stats Elevation 1,708 ft / 521 m (AMSL)
Location 43.824597° 18.331500°
Runways 1
Magnetic Variation 4.221° E

METAR

LQSA 121230Z VRB08G20KT 9999 SCT055 15/04 Q1014 WS ALL RWY NOSIG

Decode

TAF

Not found

Destination Runways

ID Width Length Bearing (true) Bearing (mag) Surface Threshold Offset Overrun Length
12 150 ft / 46 m 8,519 ft / 2,597 m 117.41° 113.19° Asphalt 333 ft / 102 m 0 ft / 0 m
30 150 ft / 46 m 8,519 ft / 2,597 m 297.43° 293.21° Asphalt 666 ft / 203 m 0 ft / 0 m

Approach Navaids

Runway Type Ident Frequency Range Bearing (true) Bearing (mag) Slope Elevation
12 Localiser BHS 110.70 MHz 25 nm / 46 km 117.00° 112.78° - 1,709 ft / 521 m (AMSL)
12 Glidescope BHS 110.70 MHz 25 nm / 46 km 117.00° 112.78° 3.20° 1,705 ft / 520 m (AMSL)
12 DME BHS 110.70 MHz 25 nm / 46 km - - - 1,705 ft / 520 m (AMSL)